sensor_id;sensor_type;location;lat;lon;timestamp;pressure;altitude;pressure_sealevel;temperature;humidity
2875;BME280;1445;52.600;13.328;2023-03-15T00:00:02;100037.88;;;1.50;100.00
2875;BME280;1445;52.600;13.328;2023-03-15T00:02:28;100051.44;;;1.50;100.00
2875;BME280;1445;52.600;13.328;2023-03-15T00:04:53;100053.03;;;1.46;100.00
2875;BME280;1445;52.600;13.328;2023-03-15T00:07:19;100062.88;;;1.52;100.00
2875;BME280;1445;52.600;13.328;2023-03-15T00:09:53;100059.06;;;1.53;100.00
2875;BME280;1445;52.600;13.328;2023-03-15T00:12:19;100058.56;;;1.56;100.00
2875;BME280;1445;52.600;13.328;2023-03-15T00:14:47;100071.34;;;1.55;100.00
2875;BME280;1445;52.600;13.328;2023-03-15T00:17:13;100077.47;;;1.46;100.00
2875;BME280;1445;52.600;13.328;2023-03-15T00:19:38;100075.38;;;1.53;100.00
2875;BME280;1445;52.600;13.328;2023-03-15T00:22:04;100075.69;;;1.56;100.00
2875;BME280;1445;52.600;13.328;2023-03-15T00:24:30;100089.53;;;1.55;100.00
2875;BME280;1445;52.600;13.328;2023-03-15T00:26:55;100093.59;;;1.57;100.00
2875;BME280;1445;52.600;13.328;2023-03-15T00:29:21;100087.31;;;1.52;100.00
2875;BME280;1445;52.600;13.328;2023-03-15T00:31:46;100089.22;;;1.51;100.00
2875;BME280;1445;52.600;13.328;2023-03-15T00:34:11;100099.00;;;1.52;100.00
2875;BME280;1445;52.600;13.328;2023-03-15T00:36:38;100105.53;;;1.51;100.00
2875;BME280;1445;52.600;13.328;2023-03-15T00:39:08;100109.06;;;1.52;100.00
2875;BME280;1445;52.600;13.328;2023-03-15T00:41:33;100122.03;;;1.45;100.00
2875;BME280;1445;52.600;13.328;2023-03-15T00:43:59;100116.09;;;1.48;100.00
2875;BME280;1445;52.600;13.328;2023-03-15T00:46:24;100114.41;;;1.47;100.00
2875;BME280;1445;52.600;13.328;2023-03-15T00:48:50;100119.31;;;1.45;100.00
2875;BME280;1445;52.600;13.328;2023-03-15T00:51:19;100125.78;;;1.43;100.00
2875;BME280;1445;52.600;13.328;2023-03-15T00:53:47;100133.41;;;1.41;100.00
2875;BME280;1445;52.600;13.328;2023-03-15T00:56:21;100134.47;;;1.40;100.00
2875;BME280;1445;52.600;13.328;2023-03-15T00:58:48;100136.63;;;1.38;100.00
2875;BME280;1445;52.600;13.328;2023-03-15T01:01:19;100138.53;;;1.38;100.00
2875;BME280;1445;52.600;13.328;2023-03-15T01:03:45;100144.47;;;1.35;100.00
2875;BME280;1445;52.600;13.328;2023-03-15T01:06:13;100148.28;;;1.39;100.00
2875;BME280;1445;52.600;13.328;2023-03-15T01:08:39;100151.28;;;1.37;100.00
2875;BME280;1445;52.600;13.328;2023-03-15T01:11:08;100155.03;;;1.36;100.00
2875;BME280;1445;52.600;13.328;2023-03-15T01:13:34;100165.41;;;1.39;100.00
2875;BME280;1445;52.600;13.328;2023-03-15T01:16:00;100168.44;;;1.43;100.00
2875;BME280;1445;52.600;13.328;2023-03-15T01:18:26;100156.13;;;1.35;100.00
2875;BME280;1445;52.600;13.328;2023-03-15T01:20:51;100161.84;;;1.34;100.00
2875;BME280;1445;52.600;13.328;2023-03-15T01:23:16;100172.13;;;1.32;100.00
2875;BME280;1445;52.600;13.328;2023-03-15T01:25:42;100182.16;;;1.31;100.00
2875;BME280;1445;52.600;13.328;2023-03-15T01:28:07;100179.44;;;1.31;100.00
2875;BME280;1445;52.600;13.328;2023-03-15T01:30:33;100176.09;;;1.24;100.00
2875;BME280;1445;52.600;13.328;2023-03-15T01:32:58;100174.47;;;1.23;100.00
2875;BME280;1445;52.600;13.328;2023-03-15T01:35:24;100179.44;;;1.31;100.00
2875;BME280;1445;52.600;13.328;2023-03-15T01:37:50;100182.84;;;1.22;100.00
2875;BME280;1445;52.600;13.328;2023-03-15T01:40:16;100185.84;;;1.20;100.00
2875;BME280;1445;52.600;13.328;2023-03-15T01:43:18;100188.25;;;1.16;100.00
2875;BME280;1445;52.600;13.328;2023-03-15T01:46:22;100196.44;;;1.22;100.00
2875;BME280;1445;52.600;13.328;2023-03-15T01:57:16;100213.16;;;1.13;100.00
2875;BME280;1445;52.600;13.328;2023-03-15T01:59:56;100208.56;;;1.14;100.00
2875;BME280;1445;52.600;13.328;2023-03-15T02:02:24;100209.31;;;1.09;100.00
2875;BME280;1445;52.600;13.328;2023-03-15T02:05:08;100205.44;;;1.05;100.00
2875;BME280;1445;52.600;13.328;2023-03-15T02:07:36;100215.47;;;1.05;100.00
2875;BME280;1445;52.600;13.328;2023-03-15T02:10:07;100216.31;;;1.05;100.00
2875;BME280;1445;52.600;13.328;2023-03-15T02:12:37;100220.91;;;1.05;100.00
2875;BME280;1445;52.600;13.328;2023-03-15T02:15:05;100217.38;;;1.04;100.00
2875;BME280;1445;52.600;13.328;2023-03-15T02:17:40;100219.72;;;0.95;100.00
2875;BME280;1445;52.600;13.328;2023-03-15T02:22:52;100219.63;;;0.90;100.00
2875;BME280;1445;52.600;13.328;2023-03-15T02:27:44;100234.94;;;0.97;100.00
2875;BME280;1445;52.600;13.328;2023-03-15T02:30:10;100239.78;;;0.94;100.00
2875;BME280;1445;52.600;13.328;2023-03-15T02:32:36;100240.97;;;0.82;100.00
2875;BME280;1445;52.600;13.328;2023-03-15T02:35:02;100240.47;;;0.85;100.00
2875;BME280;1445;52.600;13.328;2023-03-15T02:37:28;100254.03;;;0.85;100.00
2875;BME280;1445;52.600;13.328;2023-03-15T02:39:53;100254.22;;;0.78;100.00
2875;BME280;1445;52.600;13.328;2023-03-15T02:42:19;100248.47;;;0.75;100.00
2875;BME280;1445;52.600;13.328;2023-03-15T02:44:45;100257.41;;;0.75;100.00
2875;BME280;1445;52.600;13.328;2023-03-15T02:47:16;100258.50;;;0.74;100.00
2875;BME280;1445;52.600;13.328;2023-03-15T02:49:46;100270.16;;;0.75;100.00
2875;BME280;1445;52.600;13.328;2023-03-15T02:52:13;100267.19;;;0.76;100.00
2875;BME280;1445;52.600;13.328;2023-03-15T02:54:39;100275.59;;;0.75;100.00
2875;BME280;1445;52.600;13.328;2023-03-15T02:57:08;100276.41;;;0.75;100.00
2875;BME280;1445;52.600;13.328;2023-03-15T02:59:33;100281.25;;;0.73;100.00
2875;BME280;1445;52.600;13.328;2023-03-15T03:01:59;100286.94;;;0.71;100.00
2875;BME280;1445;52.600;13.328;2023-03-15T03:04:25;100286.13;;;0.71;100.00
2875;BME280;1445;52.600;13.328;2023-03-15T03:06:50;100281.84;;;0.75;100.00
2875;BME280;1445;52.600;13.328;2023-03-15T03:09:16;100286.94;;;0.71;100.00
2875;BME280;1445;52.600;13.328;2023-03-15T03:11:41;100294.47;;;0.69;100.00
2875;BME280;1445;52.600;13.328;2023-03-15T03:14:07;100297.78;;;0.71;100.00
2875;BME280;1445;52.600;13.328;2023-03-15T03:16:32;100298.84;;;0.70;100.00
2875;BME280;1445;52.600;13.328;2023-03-15T03:18:57;100295.31;;;0.70;100.00
2875;BME280;1445;52.600;13.328;2023-03-15T03:21:23;100314.53;;;0.68;100.00
2875;BME280;1445;52.600;13.328;2023-03-15T03:23:48;100304.63;;;0.74;100.00
2875;BME280;1445;52.600;13.328;2023-03-15T03:26:17;100314.06;;;0.71;100.00
2875;BME280;1445;52.600;13.328;2023-03-15T03:28:44;100317.53;;;0.67;100.00
2875;BME280;1445;52.600;13.328;2023-03-15T03:31:21;100320.22;;;0.67;100.00
2875;BME280;1445;52.600;13.328;2023-03-15T03:33:47;100327.84;;;0.70;100.00
2875;BME280;1445;52.600;13.328;2023-03-15T03:36:13;100318.81;;;0.64;100.00
2875;BME280;1445;52.600;13.328;2023-03-15T03:38:40;100326.03;;;0.59;100.00
2875;BME280;1445;52.600;13.328;2023-03-15T03:41:07;100325.06;;;0.65;100.00
2875;BME280;1445;52.600;13.328;2023-03-15T03:43:32;100334.63;;;0.67;100.00
2875;BME280;1445;52.600;13.328;2023-03-15T03:45:58;100332.63;;;0.63;100.00
2875;BME280;1445;52.600;13.328;2023-03-15T03:48:23;100339.94;;;0.62;100.00
2875;BME280;1445;52.600;13.328;2023-03-15T03:50:48;100341.34;;;0.65;100.00
2875;BME280;1445;52.600;13.328;2023-03-15T03:53:14;100346.09;;;0.58;100.00
2875;BME280;1445;52.600;13.328;2023-03-15T03:55:39;100346.69;;;0.60;100.00
2875;BME280;1445;52.600;13.328;2023-03-15T03:58:07;100355.31;;;0.57;100.00
2875;BME280;1445;52.600;13.328;2023-03-15T04:00:33;100348.56;;;0.59;100.00
2875;BME280;1445;52.600;13.328;2023-03-15T04:02:58;100354.50;;;0.56;100.00
2875;BME280;1445;52.600;13.328;2023-03-15T04:05:26;100371.00;;;0.55;100.00
2875;BME280;1445;52.600;13.328;2023-03-15T04:07:52;100362.72;;;0.61;100.00
2875;BME280;1445;52.600;13.328;2023-03-15T04:10:17;100364.28;;;0.57;100.00
2875;BME280;1445;52.600;13.328;2023-03-15T04:12:43;100366.72;;;0.59;100.00
2875;BME280;1445;52.600;13.328;2023-03-15T04:15:10;100372.06;;;0.54;100.00
2875;BME280;1445;52.600;13.328;2023-03-15T04:17:37;100376.09;;;0.51;100.00
2875;BME280;1445;52.600;13.328;2023-03-15T04:20:03;100377.50;;;0.54;100.00
2875;BME280;1445;52.600;13.328;2023-03-15T04:22:33;100388.44;;;0.59;100.00
2875;BME280;1445;52.600;13.328;2023-03-15T04:24:59;100383.75;;;0.54;100.00
2875;BME280;1445;52.600;13.328;2023-03-15T04:27:27;100396.72;;;0.52;100.00
2875;BME280;1445;52.600;13.328;2023-03-15T04:29:52;100389.91;;;0.50;100.00
2875;BME280;1445;52.600;13.328;2023-03-15T04:32:18;100392.69;;;0.55;100.00
2875;BME280;1445;52.600;13.328;2023-03-15T04:34:43;100391.28;;;0.52;100.00
2875;BME280;1445;52.600;13.328;2023-03-15T04:37:09;100397.31;;;0.54;100.00
2875;BME280;1445;52.600;13.328;2023-03-15T04:39:34;100398.88;;;0.50;100.00
2875;BME280;1445;52.600;13.328;2023-03-15T04:42:00;100393.19;;;0.52;100.00
2875;BME280;1445;52.600;13.328;2023-03-15T04:44:25;100399.97;;;0.37;100.00
2875;BME280;1445;52.600;13.328;2023-03-15T04:46:54;100401.59;;;0.38;100.00
2875;BME280;1445;52.600;13.328;2023-03-15T04:49:20;100396.78;;;0.40;100.00
2875;BME280;1445;52.600;13.328;2023-03-15T04:51:45;100398.34;;;0.36;100.00
2875;BME280;1445;52.600;13.328;2023-03-15T04:54:10;100407.38;;;0.42;100.00
2875;BME280;1445;52.600;13.328;2023-03-15T04:56:36;100412.97;;;0.35;100.00
2875;BME280;1445;52.600;13.328;2023-03-15T04:59:02;100407.63;;;0.40;100.00
2875;BME280;1445;52.600;13.328;2023-03-15T05:01:30;100416.00;;;0.39;100.00
2875;BME280;1445;52.600;13.328;2023-03-15T05:03:56;100415.03;;;0.45;100.00
2875;BME280;1445;52.600;13.328;2023-03-15T05:06:22;100427.75;;;0.44;100.00
2875;BME280;1445;52.600;13.328;2023-03-15T05:08:48;100428.91;;;0.48;100.00
2875;BME280;1445;52.600;13.328;2023-03-15T05:11:13;100436.22;;;0.48;100.00
2875;BME280;1445;52.600;13.328;2023-03-15T05:13:38;100433.88;;;0.52;100.00
2875;BME280;1445;52.600;13.328;2023-03-15T05:16:04;100442.72;;;0.47;100.00
2875;BME280;1445;52.600;13.328;2023-03-15T05:18:30;100443.56;;;0.47;100.00
2875;BME280;1445;52.600;13.328;2023-03-15T05:20:55;100444.72;;;0.52;100.00
2875;BME280;1445;52.600;13.328;2023-03-15T05:23:22;100448.97;;;0.47;100.00
2875;BME280;1445;52.600;13.328;2023-03-15T05:25:54;100455.34;;;0.53;100.00
2875;BME280;1445;52.600;13.328;2023-03-15T05:28:21;100455.91;;;0.55;100.00
2875;BME280;1445;52.600;13.328;2023-03-15T05:30:46;100462.00;;;0.62;100.00
2875;BME280;1445;52.600;13.328;2023-03-15T05:33:12;100463.00;;;0.73;100.00
2875;BME280;1445;52.600;13.328;2023-03-15T05:35:38;100473.97;;;0.78;100.00
2875;BME280;1445;52.600;13.328;2023-03-15T05:38:03;100475.00;;;0.77;100.00
2875;BME280;1445;52.600;13.328;2023-03-15T05:40:30;100487.63;;;0.83;100.00
2875;BME280;1445;52.600;13.328;2023-03-15T05:42:57;100482.63;;;0.92;100.00
2875;BME280;1445;52.600;13.328;2023-03-15T05:45:23;100487.38;;;1.02;100.00
2875;BME280;1445;52.600;13.328;2023-03-15T05:47:48;100478.88;;;1.10;100.00
2875;BME280;1445;52.600;13.328;2023-03-15T05:50:13;100492.28;;;1.16;100.00
2875;BME280;1445;52.600;13.328;2023-03-15T05:52:39;100489.63;;;1.22;100.00
2875;BME280;1445;52.600;13.328;2023-03-15T05:55:04;100492.13;;;1.23;100.00
2875;BME280;1445;52.600;13.328;2023-03-15T05:57:30;100496.16;;;1.21;100.00
2875;BME280;1445;52.600;13.328;2023-03-15T05:59:55;100497.78;;;1.22;100.00
2875;BME280;1445;52.600;13.328;2023-03-15T06:02:21;100497.56;;;1.23;100.00
2875;BME280;1445;52.600;13.328;2023-03-15T06:04:46;100512.09;;;1.17;100.00
2875;BME280;1445;52.600;13.328;2023-03-15T06:07:12;100514.81;;;1.17;100.00
2875;BME280;1445;52.600;13.328;2023-03-15T06:09:37;100514.66;;;1.24;100.00
2875;BME280;1445;52.600;13.328;2023-03-15T06:12:03;100525.41;;;1.18;100.00
2875;BME280;1445;52.600;13.328;2023-03-15T06:14:29;100522.00;;;1.23;100.00
2875;BME280;1445;52.600;13.328;2023-03-15T06:16:54;100537.63;;;1.33;100.00
2875;BME280;1445;52.600;13.328;2023-03-15T06:19:20;100526.03;;;1.37;100.00
2875;BME280;1445;52.600;13.328;2023-03-15T06:21:46;100545.59;;;1.39;100.00
2875;BME280;1445;52.600;13.328;2023-03-15T06:24:12;100534.59;;;1.46;100.00
2875;BME280;1445;52.600;13.328;2023-03-15T06:26:37;100536.56;;;1.51;100.00
2875;BME280;1445;52.600;13.328;2023-03-15T06:29:02;100545.78;;;1.50;100.00
2875;BME280;1445;52.600;13.328;2023-03-15T06:31:28;100546.03;;;1.48;100.00
2875;BME280;1445;52.600;13.328;2023-03-15T06:33:53;100559.84;;;1.47;100.00
2875;BME280;1445;52.600;13.328;2023-03-15T06:36:19;100567.78;;;1.48;100.00
2875;BME280;1445;52.600;13.328;2023-03-15T06:38:44;100570.22;;;1.50;100.00
2875;BME280;1445;52.600;13.328;2023-03-15T06:41:10;100577.97;;;1.41;100.00
2875;BME280;1445;52.600;13.328;2023-03-15T06:43:37;100581.34;;;1.48;100.00
2875;BME280;1445;52.600;13.328;2023-03-15T06:46:02;100585.88;;;1.42;100.00
2875;BME280;1445;52.600;13.328;2023-03-15T06:48:28;100587.59;;;1.49;100.00
2875;BME280;1445;52.600;13.328;2023-03-15T06:50:54;100605.81;;;1.48;100.00
2875;BME280;1445;52.600;13.328;2023-03-15T06:53:20;100598.53;;;1.54;100.00
2875;BME280;1445;52.600;13.328;2023-03-15T06:55:46;100604.09;;;1.59;100.00
2875;BME280;1445;52.600;13.328;2023-03-15T06:58:12;100607.03;;;1.57;100.00
2875;BME280;1445;52.600;13.328;2023-03-15T07:00:38;100614.94;;;1.59;100.00
2875;BME280;1445;52.600;13.328;2023-03-15T07:03:03;100620.47;;;1.64;100.00
2875;BME280;1445;52.600;13.328;2023-03-15T07:05:30;100628.09;;;1.50;100.00
2875;BME280;1445;52.600;13.328;2023-03-15T07:07:56;100636.75;;;1.64;100.00
2875;BME280;1445;52.600;13.328;2023-03-15T07:10:22;100623.44;;;1.62;100.00
2875;BME280;1445;52.600;13.328;2023-03-15T07:12:48;100629.75;;;1.68;100.00
2875;BME280;1445;52.600;13.328;2023-03-15T07:15:13;100627.03;;;1.68;100.00
2875;BME280;1445;52.600;13.328;2023-03-15T07:17:39;100633.66;;;1.72;100.00
2875;BME280;1445;52.600;13.328;2023-03-15T07:20:05;100640.41;;;1.70;100.00
2875;BME280;1445;52.600;13.328;2023-03-15T07:22:31;100639.97;;;1.61;100.00
2875;BME280;1445;52.600;13.328;2023-03-15T07:24:57;100639.47;;;1.64;100.00
2875;BME280;1445;52.600;13.328;2023-03-15T07:27:22;100642.53;;;1.67;100.00
2875;BME280;1445;52.600;13.328;2023-03-15T07:29:48;100645.00;;;1.69;100.00
2875;BME280;1445;52.600;13.328;2023-03-15T07:32:13;100657.38;;;1.94;100.00
2875;BME280;1445;52.600;13.328;2023-03-15T07:34:39;100651.53;;;1.85;100.00
2875;BME280;1445;52.600;13.328;2023-03-15T07:37:04;100655.66;;;1.87;100.00
2875;BME280;1445;52.600;13.328;2023-03-15T07:39:29;100661.31;;;1.86;100.00
2875;BME280;1445;52.600;13.328;2023-03-15T07:41:57;100659.69;;;1.85;100.00
2875;BME280;1445;52.600;13.328;2023-03-15T07:44:24;100658.19;;;1.77;100.00
2875;BME280;1445;52.600;13.328;2023-03-15T07:46:49;100666.78;;;2.03;100.00
2875;BME280;1445;52.600;13.328;2023-03-15T07:49:15;100656.13;;;1.84;100.00
2875;BME280;1445;52.600;13.328;2023-03-15T07:51:40;100662.25;;;1.91;100.00
2875;BME280;1445;52.600;13.328;2023-03-15T07:54:06;100667.69;;;2.08;100.00
2875;BME280;1445;52.600;13.328;2023-03-15T07:56:32;100670.16;;;1.93;100.00
2875;BME280;1445;52.600;13.328;2023-03-15T07:58:58;100666.28;;;2.06;100.00
2875;BME280;1445;52.600;13.328;2023-03-15T08:01:23;100663.97;;;1.98;100.00
2875;BME280;1445;52.600;13.328;2023-03-15T08:03:48;100673.78;;;2.15;100.00
2875;BME280;1445;52.600;13.328;2023-03-15T08:06:14;100677.31;;;2.16;100.00
2875;BME280;1445;52.600;13.328;2023-03-15T08:08:39;100670.56;;;2.19;100.00
2875;BME280;1445;52.600;13.328;2023-03-15T08:11:05;100678.06;;;2.11;100.00
2875;BME280;1445;52.600;13.328;2023-03-15T08:13:31;100678.13;;;2.33;100.00
2875;BME280;1445;52.600;13.328;2023-03-15T08:15:56;100681.78;;;2.22;100.00
2875;BME280;1445;52.600;13.328;2023-03-15T08:18:22;100688.53;;;2.36;100.00
2875;BME280;1445;52.600;13.328;2023-03-15T08:20:47;100685.47;;;2.33;100.00
2875;BME280;1445;52.600;13.328;2023-03-15T08:23:13;100680.94;;;2.38;100.00
2875;BME280;1445;52.600;13.328;2023-03-15T08:25:42;100694.63;;;2.44;100.00
2875;BME280;1445;52.600;13.328;2023-03-15T08:28:08;100686.63;;;2.37;100.00
2875;BME280;1445;52.600;13.328;2023-03-15T08:30:34;100687.22;;;2.39;100.00
2875;BME280;1445;52.600;13.328;2023-03-15T08:32:59;100688.28;;;2.38;100.00
2875;BME280;1445;52.600;13.328;2023-03-15T08:35:25;100685.06;;;2.41;100.00
2875;BME280;1445;52.600;13.328;2023-03-15T08:37:50;100695.28;;;2.51;100.00
2875;BME280;1445;52.600;13.328;2023-03-15T08:40:18;100697.56;;;2.59;100.00
2875;BME280;1445;52.600;13.328;2023-03-15T08:42:51;100697.72;;;2.52;100.00
2875;BME280;1445;52.600;13.328;2023-03-15T08:45:17;100697.00;;;2.57;100.00
2875;BME280;1445;52.600;13.328;2023-03-15T08:47:42;100717.19;;;2.61;100.00
2875;BME280;1445;52.600;13.328;2023-03-15T08:50:10;100709.03;;;2.61;100.00
2875;BME280;1445;52.600;13.328;2023-03-15T08:52:37;100715.03;;;2.63;100.00
2875;BME280;1445;52.600;13.328;2023-03-15T08:55:03;100714.31;;;2.68;100.00
2875;BME280;1445;52.600;13.328;2023-03-15T08:57:29;100721.88;;;2.66;100.00
2875;BME280;1445;52.600;13.328;2023-03-15T09:00:00;100717.38;;;2.54;100.00
2875;BME280;1445;52.600;13.328;2023-03-15T09:02:31;100717.38;;;2.54;100.00
2875;BME280;1445;52.600;13.328;2023-03-15T09:04:56;100721.88;;;2.66;100.00
2875;BME280;1445;52.600;13.328;2023-03-15T09:07:22;100722.00;;;2.54;100.00
2875;BME280;1445;52.600;13.328;2023-03-15T09:09:47;100747.13;;;2.61;100.00
2875;BME280;1445;52.600;13.328;2023-03-15T09:12:14;100730.88;;;2.66;100.00
2875;BME280;1445;52.600;13.328;2023-03-15T09:14:40;100741.09;;;2.76;100.00
2875;BME280;1445;52.600;13.328;2023-03-15T09:17:06;100736.47;;;2.76;100.00
2875;BME280;1445;52.600;13.328;2023-03-15T09:19:31;100743.00;;;2.75;100.00
2875;BME280;1445;52.600;13.328;2023-03-15T09:21:56;100736.56;;;2.81;100.00
2875;BME280;1445;52.600;13.328;2023-03-15T09:24:22;100744.03;;;2.91;100.00
2875;BME280;1445;52.600;13.328;2023-03-15T09:26:47;100753.88;;;3.14;100.00
2875;BME280;1445;52.600;13.328;2023-03-15T09:29:13;100750.41;;;3.19;100.00
2875;BME280;1445;52.600;13.328;2023-03-15T09:31:38;100753.56;;;3.32;100.00
2875;BME280;1445;52.600;13.328;2023-03-15T09:34:04;100756.94;;;3.40;100.00
2875;BME280;1445;52.600;13.328;2023-03-15T09:36:30;100759.47;;;3.46;100.00
2875;BME280;1445;52.600;13.328;2023-03-15T09:38:56;100755.97;;;3.73;100.00
2875;BME280;1445;52.600;13.328;2023-03-15T09:41:43;100748.66;;;3.78;100.00
2875;BME280;1445;52.600;13.328;2023-03-15T09:47:03;100767.81;;;3.40;100.00
2875;BME280;1445;52.600;13.328;2023-03-15T09:49:53;100775.03;;;3.29;100.00
2875;BME280;1445;52.600;13.328;2023-03-15T09:52:40;100771.50;;;3.28;100.00
2875;BME280;1445;52.600;13.328;2023-03-15T09:55:20;100775.50;;;3.21;100.00
2875;BME280;1445;52.600;13.328;2023-03-15T09:57:47;100781.03;;;3.48;100.00
2875;BME280;1445;52.600;13.328;2023-03-15T10:00:45;100785.72;;;3.52;100.00
2875;BME280;1445;52.600;13.328;2023-03-15T10:03:37;100785.69;;;3.74;100.00
2875;BME280;1445;52.600;13.328;2023-03-15T10:08:45;100779.81;;;4.42;100.00
2875;BME280;1445;52.600;13.328;2023-03-15T10:14:08;100777.97;;;4.47;100.00
2875;BME280;1445;52.600;13.328;2023-03-15T10:16:43;100793.72;;;4.08;100.00
2875;BME280;1445;52.600;13.328;2023-03-15T10:19:41;100793.75;;;3.86;100.00
2875;BME280;1445;52.600;13.328;2023-03-15T10:22:33;100788.28;;;3.86;100.00
2875;BME280;1445;52.600;13.328;2023-03-15T10:30:21;100801.03;;;4.35;100.00
2875;BME280;1445;52.600;13.328;2023-03-15T10:32:55;100800.44;;;4.27;100.00
2875;BME280;1445;52.600;13.328;2023-03-15T10:35:23;100818.19;;;4.30;100.00
2875;BME280;1445;52.600;13.328;2023-03-15T10:37:48;100775.22;;;4.15;100.00
2875;BME280;1445;52.600;13.328;2023-03-15T10:40:14;100799.22;;;4.45;100.00
2875;BME280;1445;52.600;13.328;2023-03-15T10:42:45;100793.56;;;4.52;100.00
2875;BME280;1445;52.600;13.328;2023-03-15T10:47:43;100794.75;;;4.34;100.00
2875;BME280;1445;52.600;13.328;2023-03-15T10:50:16;100796.25;;;4.84;100.00
2875;BME280;1445;52.600;13.328;2023-03-15T10:52:43;100802.59;;;4.90;100.00
2875;BME280;1445;52.600;13.328;2023-03-15T10:57:39;100804.84;;;5.50;100.00
2875;BME280;1445;52.600;13.328;2023-03-15T11:02:50;100803.25;;;6.74;100.00
2875;BME280;1445;52.600;13.328;2023-03-15T11:05:17;100804.63;;;6.66;100.00
2875;BME280;1445;52.600;13.328;2023-03-15T11:07:59;100815.63;;;5.72;100.00
2875;BME280;1445;52.600;13.328;2023-03-15T11:10:27;100839.53;;;5.40;100.00
2875;BME280;1445;52.600;13.328;2023-03-15T11:13:13;100819.31;;;5.41;100.00
2875;BME280;1445;52.600;13.328;2023-03-15T11:15:54;100826.66;;;5.30;100.00
2875;BME280;1445;52.600;13.328;2023-03-15T11:18:51;100833.41;;;5.22;100.00
2875;BME280;1445;52.600;13.328;2023-03-15T11:21:23;100825.25;;;4.90;100.00
2875;BME280;1445;52.600;13.328;2023-03-15T11:23:50;100819.25;;;4.88;100.00
2875;BME280;1445;52.600;13.328;2023-03-15T11:26:18;100822.28;;;4.92;100.00
2875;BME280;1445;52.600;13.328;2023-03-15T11:28:50;100821.66;;;5.74;100.00
2875;BME280;1445;52.600;13.328;2023-03-15T11:31:19;100825.00;;;5.92;100.00
2875;BME280;1445;52.600;13.328;2023-03-15T11:34:07;100815.84;;;6.39;100.00
2875;BME280;1445;52.600;13.328;2023-03-15T11:36:39;100807.88;;;7.04;100.00
2875;BME280;1445;52.600;13.328;2023-03-15T11:39:05;100804.59;;;7.02;100.00
2875;BME280;1445;52.600;13.328;2023-03-15T11:41:51;100814.75;;;6.50;100.00
2875;BME280;1445;52.600;13.328;2023-03-15T11:47:00;100812.59;;;6.78;100.00
2875;BME280;1445;52.600;13.328;2023-03-15T11:49:39;100813.66;;;6.97;100.00
2875;BME280;1445;52.600;13.328;2023-03-15T11:52:05;100812.59;;;6.78;100.00
2875;BME280;1445;52.600;13.328;2023-03-15T11:54:31;100827.34;;;6.56;100.00
2875;BME280;1445;52.600;13.328;2023-03-15T11:59:37;100820.50;;;6.59;100.00
2875;BME280;1445;52.600;13.328;2023-03-15T12:17:58;100796.00;;;9.12;100.00
2875;BME280;1445;52.600;13.328;2023-03-15T12:20:37;100813.44;;;7.69;100.00
2875;BME280;1445;52.600;13.328;2023-03-15T12:23:31;100818.31;;;6.97;100.00
2875;BME280;1445;52.600;13.328;2023-03-15T12:28:36;100818.09;;;8.72;100.00
2875;BME280;1445;52.600;13.328;2023-03-15T12:31:04;100815.94;;;7.70;100.00
2875;BME280;1445;52.600;13.328;2023-03-15T12:33:33;100825.41;;;7.23;100.00
2875;BME280;1445;52.600;13.328;2023-03-15T12:36:09;100834.28;;;7.75;100.00
2875;BME280;1445;52.600;13.328;2023-03-15T12:38:39;100820.66;;;8.58;100.00
2875;BME280;1445;52.600;13.328;2023-03-15T12:41:33;100820.28;;;9.04;100.00
2875;BME280;1445;52.600;13.328;2023-03-15T12:47:00;100825.88;;;11.64;91.12
2875;BME280;1445;52.600;13.328;2023-03-15T12:49:27;100820.31;;;10.19;69.86
2875;BME280;1445;52.600;13.328;2023-03-15T12:54:59;100835.28;;;8.54;78.67
2875;BME280;1445;52.600;13.328;2023-03-15T12:57:34;100826.50;;;9.44;79.66
2875;BME280;1445;52.600;13.328;2023-03-15T13:00:09;100841.47;;;9.04;85.37
2875;BME280;1445;52.600;13.328;2023-03-15T13:02:44;100835.56;;;7.98;96.11
2875;BME280;1445;52.600;13.328;2023-03-15T13:05:27;100824.53;;;8.57;87.85
2875;BME280;1445;52.600;13.328;2023-03-15T13:08:09;100830.06;;;9.16;70.71
2875;BME280;1445;52.600;13.328;2023-03-15T13:16:43;100825.06;;;8.94;63.25
2875;BME280;1445;52.600;13.328;2023-03-15T13:22:02;100841.44;;;9.33;66.46
2875;BME280;1445;52.600;13.328;2023-03-15T13:24:56;100834.25;;;9.08;67.45
2875;BME280;1445;52.600;13.328;2023-03-15T13:28:04;100836.50;;;7.73;75.28
2875;BME280;1445;52.600;13.328;2023-03-15T13:30:45;100844.34;;;7.09;87.00
2875;BME280;1445;52.600;13.328;2023-03-15T13:33:28;100873.78;;;6.10;100.00
2875;BME280;1445;52.600;13.328;2023-03-15T13:36:12;100877.63;;;5.14;100.00
2875;BME280;1445;52.600;13.328;2023-03-15T13:38:50;100902.06;;;4.67;100.00
2875;BME280;1445;52.600;13.328;2023-03-15T13:43:50;100910.31;;;4.18;100.00
2875;BME280;1445;52.600;13.328;2023-03-15T13:46:18;100919.66;;;5.08;100.00
2875;BME280;1445;52.600;13.328;2023-03-15T13:48:46;100928.84;;;6.24;100.00
2875;BME280;1445;52.600;13.328;2023-03-15T13:54:00;100900.69;;;7.87;100.00
2875;BME280;1445;52.600;13.328;2023-03-15T13:56:29;100891.25;;;8.63;100.00
2875;BME280;1445;52.600;13.328;2023-03-15T13:58:56;100879.53;;;9.74;100.00
2875;BME280;1445;52.600;13.328;2023-03-15T14:01:23;100879.25;;;10.61;100.00
2875;BME280;1445;52.600;13.328;2023-03-15T14:03:59;100885.06;;;10.60;100.00
2875;BME280;1445;52.600;13.328;2023-03-15T14:06:28;100884.88;;;11.08;100.00
2875;BME280;1445;52.600;13.328;2023-03-15T14:09:16;100899.22;;;9.33;100.00
2875;BME280;1445;52.600;13.328;2023-03-15T14:11:42;100878.16;;;9.47;100.00
2875;BME280;1445;52.600;13.328;2023-03-15T14:14:24;100888.38;;;9.18;100.00
2875;BME280;1445;52.600;13.328;2023-03-15T14:16:50;100882.25;;;8.57;100.00
2875;BME280;1445;52.600;13.328;2023-03-15T14:19:22;100870.22;;;9.17;100.00
2875;BME280;1445;52.600;13.328;2023-03-15T14:21:59;100867.41;;;10.42;94.64
2875;BME280;1445;52.600;13.328;2023-03-15T14:24:37;100877.53;;;11.17;84.50
2875;BME280;1445;52.600;13.328;2023-03-15T14:27:15;100883.19;;;10.55;76.21